KBWI/BWI METAR and TAF weather

Enter ICAO airport designator
Station Type Date Time Source
KBWI METAR 2018/07/21 22:54 UTC NOAA

KBWI 212254Z 05017G29KT 3SM -RA BR SCT006 OVC008 21/19 A2976 RMK AO2 PK WND 04029/2249 SLP074 VIS E-SE 3/4 P0021 T02060194


Station Type Date Time Source
KBWI Decoded METAR 2018/07/21 22:54 UTC NOAA

BALTIMORE-WASHINGTON INTERNATIONAL , MD, United States (KBWI) 39-10N 076-41W 59M
Jul 21, 2018 - 06:54 PM EDT / 2018.07.21 2254 UTC
Wind: from the NE (050 degrees) at 20 MPH (17 KT) gusting to 33 MPH (29 KT):0
Visibility: 3 mile(s):0
Sky conditions: overcast
Weather: light rain; mist
Precipitation last hour: 0.21 inches
Temperature: 69.1 F (20.6 C)
Dew Point: 66.9 F (19.4 C)
Relative Humidity: 92%
Pressure (altimeter): 29.76 in. Hg (1007 hPa)
ob: KBWI 212254Z 05017G29KT 3SM -RA BR SCT006 OVC008 21/19 A2976 RMK AO2 PK WND 04029/2249 SLP074 VIS E-SE 3/4 P0021 T02060194
cycle: 23

Station Type Date Time Source
KBWI TAF 2018/07/21 21:36 UTC NOAA

TAF
AMD KBWI 212035Z 2121/2224 02012G22KT 2SM RA BR BKN008 OVC012
FM220300 36015KT 2SM RA BR OVC008
FM220600 31009KT 5SM BR BKN008
FM220800 VRB03KT 5SM BR OVC008
FM221400 15006KT P6SM BKN010
FM221800 13007KT P6SM -SHRA OVC070


Example: see airport list